sensor_id;sensor_type;location;lat;lon;timestamp;P1;durP1;ratioP1;P2;durP2;ratioP2
47555;SDS011;33291;46.222;26.460;2023-05-07T00:00:18;2.55;;;1.10;;
47555;SDS011;33291;46.222;26.460;2023-05-07T00:02:44;6.75;;;1.23;;
47555;SDS011;33291;46.222;26.460;2023-05-07T00:05:11;4.18;;;1.10;;
47555;SDS011;33291;46.222;26.460;2023-05-07T00:07:36;2.50;;;1.65;;
47555;SDS011;33291;46.222;26.460;2023-05-07T00:10:02;7.20;;;1.30;;
47555;SDS011;33291;46.222;26.460;2023-05-07T00:12:28;5.03;;;1.13;;
47555;SDS011;33291;46.222;26.460;2023-05-07T00:14:56;3.28;;;1.00;;
47555;SDS011;33291;46.222;26.460;2023-05-07T00:17:22;1.58;;;1.10;;
47555;SDS011;33291;46.222;26.460;2023-05-07T00:19:48;1.83;;;1.30;;
47555;SDS011;33291;46.222;26.460;2023-05-07T00:22:13;3.38;;;1.42;;
47555;SDS011;33291;46.222;26.460;2023-05-07T00:24:39;3.25;;;1.80;;
47555;SDS011;33291;46.222;26.460;2023-05-07T00:27:04;3.30;;;1.58;;
47555;SDS011;33291;46.222;26.460;2023-05-07T00:29:30;3.92;;;1.23;;
47555;SDS011;33291;46.222;26.460;2023-05-07T00:31:56;3.17;;;1.27;;
47555;SDS011;33291;46.222;26.460;2023-05-07T00:34:21;3.50;;;1.55;;
47555;SDS011;33291;46.222;26.460;2023-05-07T00:36:47;4.45;;;1.20;;
47555;SDS011;33291;46.222;26.460;2023-05-07T00:39:13;2.08;;;1.55;;
47555;SDS011;33291;46.222;26.460;2023-05-07T00:41:38;2.47;;;1.30;;
47555;SDS011;33291;46.222;26.460;2023-05-07T00:44:04;3.38;;;1.20;;
47555;SDS011;33291;46.222;26.460;2023-05-07T00:46:29;3.45;;;1.52;;
47555;SDS011;33291;46.222;26.460;2023-05-07T00:48:55;4.72;;;1.50;;
47555;SDS011;33291;46.222;26.460;2023-05-07T00:51:21;6.18;;;1.08;;
47555;SDS011;33291;46.222;26.460;2023-05-07T00:53:48;5.57;;;1.60;;
47555;SDS011;33291;46.222;26.460;2023-05-07T00:56:14;3.95;;;1.60;;
47555;SDS011;33291;46.222;26.460;2023-05-07T00:58:40;5.85;;;1.80;;
47555;SDS011;33291;46.222;26.460;2023-05-07T01:01:06;3.28;;;1.50;;
47555;SDS011;33291;46.222;26.460;2023-05-07T01:03:32;4.85;;;1.50;;
47555;SDS011;33291;46.222;26.460;2023-05-07T01:05:58;2.15;;;1.20;;
47555;SDS011;33291;46.222;26.460;2023-05-07T01:08:25;4.60;;;1.50;;
47555;SDS011;33291;46.222;26.460;2023-05-07T01:10:53;2.97;;;1.70;;
47555;SDS011;33291;46.222;26.460;2023-05-07T01:13:20;3.40;;;1.30;;
47555;SDS011;33291;46.222;26.460;2023-05-07T01:15:46;5.93;;;1.85;;
47555;SDS011;33291;46.222;26.460;2023-05-07T01:18:11;1.63;;;1.20;;
47555;SDS011;33291;46.222;26.460;2023-05-07T01:20:37;3.97;;;1.67;;
47555;SDS011;33291;46.222;26.460;2023-05-07T01:23:03;3.88;;;2.28;;
47555;SDS011;33291;46.222;26.460;2023-05-07T01:25:29;3.00;;;1.10;;
47555;SDS011;33291;46.222;26.460;2023-05-07T01:27:55;3.10;;;1.63;;
47555;SDS011;33291;46.222;26.460;2023-05-07T01:30:21;4.28;;;1.35;;
47555;SDS011;33291;46.222;26.460;2023-05-07T01:35:14;2.85;;;1.27;;
47555;SDS011;33291;46.222;26.460;2023-05-07T01:37:43;1.67;;;1.30;;
47555;SDS011;33291;46.222;26.460;2023-05-07T01:40:10;1.40;;;1.00;;
47555;SDS011;33291;46.222;26.460;2023-05-07T01:42:36;3.65;;;1.13;;
47555;SDS011;33291;46.222;26.460;2023-05-07T01:45:02;3.20;;;1.75;;
47555;SDS011;33291;46.222;26.460;2023-05-07T01:47:28;4.45;;;1.70;;
47555;SDS011;33291;46.222;26.460;2023-05-07T01:49:55;5.18;;;1.30;;
47555;SDS011;33291;46.222;26.460;2023-05-07T01:52:21;4.72;;;1.55;;
47555;SDS011;33291;46.222;26.460;2023-05-07T01:54:46;2.72;;;1.45;;
47555;SDS011;33291;46.222;26.460;2023-05-07T01:57:11;3.95;;;1.58;;
47555;SDS011;33291;46.222;26.460;2023-05-07T01:59:37;4.00;;;1.30;;
47555;SDS011;33291;46.222;26.460;2023-05-07T02:02:02;5.90;;;1.48;;
47555;SDS011;33291;46.222;26.460;2023-05-07T02:04:28;1.75;;;1.00;;
47555;SDS011;33291;46.222;26.460;2023-05-07T02:06:53;3.38;;;1.10;;
47555;SDS011;33291;46.222;26.460;2023-05-07T02:09:19;5.60;;;1.65;;
47555;SDS011;33291;46.222;26.460;2023-05-07T02:11:44;2.47;;;1.30;;
47555;SDS011;33291;46.222;26.460;2023-05-07T02:14:10;5.63;;;1.30;;
47555;SDS011;33291;46.222;26.460;2023-05-07T02:16:35;1.27;;;1.00;;
47555;SDS011;33291;46.222;26.460;2023-05-07T02:19:01;5.28;;;1.58;;
47555;SDS011;33291;46.222;26.460;2023-05-07T02:21:27;5.45;;;1.42;;
47555;SDS011;33291;46.222;26.460;2023-05-07T02:23:52;4.38;;;1.33;;
47555;SDS011;33291;46.222;26.460;2023-05-07T02:26:18;1.50;;;1.08;;
47555;SDS011;33291;46.222;26.460;2023-05-07T02:28:43;5.80;;;1.55;;
47555;SDS011;33291;46.222;26.460;2023-05-07T02:31:09;1.52;;;1.15;;
47555;SDS011;33291;46.222;26.460;2023-05-07T02:33:34;5.05;;;1.55;;
47555;SDS011;33291;46.222;26.460;2023-05-07T02:36:10;3.90;;;1.45;;
47555;SDS011;33291;46.222;26.460;2023-05-07T02:38:36;3.42;;;1.50;;
47555;SDS011;33291;46.222;26.460;2023-05-07T02:41:02;6.85;;;1.10;;
47555;SDS011;33291;46.222;26.460;2023-05-07T02:43:27;4.88;;;1.40;;
47555;SDS011;33291;46.222;26.460;2023-05-07T02:46:02;2.90;;;1.10;;
47555;SDS011;33291;46.222;26.460;2023-05-07T02:48:29;2.60;;;1.25;;
47555;SDS011;33291;46.222;26.460;2023-05-07T02:50:54;4.38;;;1.75;;
47555;SDS011;33291;46.222;26.460;2023-05-07T02:53:20;4.30;;;1.42;;
47555;SDS011;33291;46.222;26.460;2023-05-07T02:55:45;2.42;;;1.70;;
47555;SDS011;33291;46.222;26.460;2023-05-07T02:58:11;3.72;;;1.90;;
47555;SDS011;33291;46.222;26.460;2023-05-07T03:00:36;4.32;;;1.65;;
47555;SDS011;33291;46.222;26.460;2023-05-07T03:03:02;2.53;;;1.52;;
47555;SDS011;33291;46.222;26.460;2023-05-07T03:05:27;2.88;;;1.60;;
47555;SDS011;33291;46.222;26.460;2023-05-07T03:07:53;4.85;;;1.55;;
47555;SDS011;33291;46.222;26.460;2023-05-07T03:10:18;3.20;;;1.38;;
47555;SDS011;33291;46.222;26.460;2023-05-07T03:12:44;3.63;;;1.48;;
47555;SDS011;33291;46.222;26.460;2023-05-07T03:15:09;2.03;;;1.10;;
47555;SDS011;33291;46.222;26.460;2023-05-07T03:17:37;2.40;;;1.10;;
47555;SDS011;33291;46.222;26.460;2023-05-07T03:20:03;2.13;;;1.42;;
47555;SDS011;33291;46.222;26.460;2023-05-07T03:22:29;6.97;;;1.25;;
47555;SDS011;33291;46.222;26.460;2023-05-07T03:24:54;3.00;;;1.30;;
47555;SDS011;33291;46.222;26.460;2023-05-07T03:27:20;3.75;;;1.63;;
47555;SDS011;33291;46.222;26.460;2023-05-07T03:29:45;2.65;;;1.55;;
47555;SDS011;33291;46.222;26.460;2023-05-07T03:32:11;3.05;;;1.45;;
47555;SDS011;33291;46.222;26.460;2023-05-07T03:34:36;5.15;;;1.25;;
47555;SDS011;33291;46.222;26.460;2023-05-07T03:37:02;3.63;;;1.48;;
47555;SDS011;33291;46.222;26.460;2023-05-07T03:39:27;2.78;;;2.15;;
47555;SDS011;33291;46.222;26.460;2023-05-07T03:41:53;4.47;;;1.33;;
47555;SDS011;33291;46.222;26.460;2023-05-07T03:44:18;5.88;;;1.63;;
47555;SDS011;33291;46.222;26.460;2023-05-07T03:46:44;4.03;;;1.50;;
47555;SDS011;33291;46.222;26.460;2023-05-07T03:49:09;4.47;;;1.88;;
47555;SDS011;33291;46.222;26.460;2023-05-07T03:51:34;10.00;;;1.58;;
47555;SDS011;33291;46.222;26.460;2023-05-07T03:54:01;8.15;;;1.48;;
47555;SDS011;33291;46.222;26.460;2023-05-07T03:56:26;3.08;;;1.23;;
47555;SDS011;33291;46.222;26.460;2023-05-07T03:58:52;2.88;;;1.90;;
47555;SDS011;33291;46.222;26.460;2023-05-07T04:01:19;4.13;;;1.35;;
47555;SDS011;33291;46.222;26.460;2023-05-07T04:03:44;4.10;;;1.40;;
47555;SDS011;33291;46.222;26.460;2023-05-07T04:06:10;2.95;;;1.80;;
47555;SDS011;33291;46.222;26.460;2023-05-07T04:08:36;2.70;;;1.75;;
47555;SDS011;33291;46.222;26.460;2023-05-07T04:11:01;6.32;;;1.45;;
47555;SDS011;33291;46.222;26.460;2023-05-07T04:13:27;4.20;;;1.80;;
47555;SDS011;33291;46.222;26.460;2023-05-07T04:15:55;8.60;;;1.70;;
47555;SDS011;33291;46.222;26.460;2023-05-07T04:18:21;4.60;;;1.98;;
47555;SDS011;33291;46.222;26.460;2023-05-07T04:20:47;7.00;;;2.75;;
47555;SDS011;33291;46.222;26.460;2023-05-07T04:23:14;6.95;;;2.17;;
47555;SDS011;33291;46.222;26.460;2023-05-07T04:25:39;2.92;;;1.98;;
47555;SDS011;33291;46.222;26.460;2023-05-07T04:28:05;2.03;;;1.60;;
47555;SDS011;33291;46.222;26.460;2023-05-07T04:30:31;4.05;;;1.98;;
47555;SDS011;33291;46.222;26.460;2023-05-07T04:32:56;6.60;;;1.83;;
47555;SDS011;33291;46.222;26.460;2023-05-07T04:35:21;2.85;;;1.80;;
47555;SDS011;33291;46.222;26.460;2023-05-07T04:37:47;2.53;;;1.77;;
47555;SDS011;33291;46.222;26.460;2023-05-07T04:40:12;2.38;;;1.67;;
47555;SDS011;33291;46.222;26.460;2023-05-07T04:42:38;3.83;;;1.65;;
47555;SDS011;33291;46.222;26.460;2023-05-07T04:45:04;2.55;;;1.45;;
47555;SDS011;33291;46.222;26.460;2023-05-07T04:47:30;3.17;;;1.38;;
47555;SDS011;33291;46.222;26.460;2023-05-07T04:49:55;4.97;;;1.80;;
47555;SDS011;33291;46.222;26.460;2023-05-07T04:52:22;3.83;;;1.48;;
47555;SDS011;33291;46.222;26.460;2023-05-07T04:54:47;9.15;;;1.90;;
47555;SDS011;33291;46.222;26.460;2023-05-07T04:57:13;2.05;;;1.30;;
47555;SDS011;33291;46.222;26.460;2023-05-07T04:59:38;6.57;;;2.60;;
47555;SDS011;33291;46.222;26.460;2023-05-07T05:02:04;5.20;;;2.75;;
47555;SDS011;33291;46.222;26.460;2023-05-07T05:04:29;10.68;;;2.15;;
47555;SDS011;33291;46.222;26.460;2023-05-07T05:06:55;2.55;;;1.67;;
47555;SDS011;33291;46.222;26.460;2023-05-07T05:09:20;4.55;;;1.98;;
47555;SDS011;33291;46.222;26.460;2023-05-07T05:11:46;2.25;;;1.33;;
47555;SDS011;33291;46.222;26.460;2023-05-07T05:14:11;3.97;;;1.85;;
47555;SDS011;33291;46.222;26.460;2023-05-07T05:16:37;3.75;;;2.05;;
47555;SDS011;33291;46.222;26.460;2023-05-07T05:19:02;6.97;;;2.67;;
47555;SDS011;33291;46.222;26.460;2023-05-07T05:21:28;4.75;;;2.00;;
47555;SDS011;33291;46.222;26.460;2023-05-07T05:23:53;3.15;;;1.85;;
47555;SDS011;33291;46.222;26.460;2023-05-07T05:26:19;3.10;;;2.30;;
47555;SDS011;33291;46.222;26.460;2023-05-07T05:28:46;3.08;;;1.90;;
47555;SDS011;33291;46.222;26.460;2023-05-07T05:31:12;5.00;;;2.90;;
47555;SDS011;33291;46.222;26.460;2023-05-07T05:33:37;5.50;;;2.60;;
47555;SDS011;33291;46.222;26.460;2023-05-07T05:36:03;5.18;;;3.03;;
47555;SDS011;33291;46.222;26.460;2023-05-07T05:38:29;6.05;;;3.38;;
47555;SDS011;33291;46.222;26.460;2023-05-07T05:40:54;5.63;;;2.22;;
47555;SDS011;33291;46.222;26.460;2023-05-07T05:43:19;6.88;;;3.38;;
47555;SDS011;33291;46.222;26.460;2023-05-07T05:45:45;6.68;;;3.65;;
47555;SDS011;33291;46.222;26.460;2023-05-07T05:48:11;5.10;;;3.55;;
47555;SDS011;33291;46.222;26.460;2023-05-07T05:50:36;5.07;;;3.58;;
47555;SDS011;33291;46.222;26.460;2023-05-07T05:53:02;10.48;;;3.83;;
47555;SDS011;33291;46.222;26.460;2023-05-07T05:55:27;7.70;;;2.95;;
47555;SDS011;33291;46.222;26.460;2023-05-07T05:57:53;6.57;;;3.40;;
47555;SDS011;33291;46.222;26.460;2023-05-07T06:00:18;7.78;;;3.58;;
47555;SDS011;33291;46.222;26.460;2023-05-07T06:02:47;11.48;;;2.83;;
47555;SDS011;33291;46.222;26.460;2023-05-07T06:05:12;6.30;;;2.85;;
47555;SDS011;33291;46.222;26.460;2023-05-07T06:07:38;7.68;;;3.38;;
47555;SDS011;33291;46.222;26.460;2023-05-07T06:10:04;8.40;;;3.72;;
47555;SDS011;33291;46.222;26.460;2023-05-07T06:12:30;7.53;;;3.85;;
47555;SDS011;33291;46.222;26.460;2023-05-07T06:14:55;7.57;;;3.35;;
47555;SDS011;33291;46.222;26.460;2023-05-07T06:17:20;14.02;;;4.30;;
47555;SDS011;33291;46.222;26.460;2023-05-07T06:19:46;7.22;;;3.22;;
47555;SDS011;33291;46.222;26.460;2023-05-07T06:22:11;9.18;;;3.97;;
47555;SDS011;33291;46.222;26.460;2023-05-07T06:24:37;11.50;;;3.67;;
47555;SDS011;33291;46.222;26.460;2023-05-07T06:27:02;8.73;;;5.20;;
47555;SDS011;33291;46.222;26.460;2023-05-07T06:29:28;8.75;;;3.80;;
47555;SDS011;33291;46.222;26.460;2023-05-07T06:31:56;6.70;;;4.07;;
47555;SDS011;33291;46.222;26.460;2023-05-07T06:34:21;10.98;;;4.10;;
47555;SDS011;33291;46.222;26.460;2023-05-07T06:36:47;7.22;;;4.05;;
47555;SDS011;33291;46.222;26.460;2023-05-07T06:39:12;7.88;;;4.95;;
47555;SDS011;33291;46.222;26.460;2023-05-07T06:41:38;7.63;;;4.55;;
47555;SDS011;33291;46.222;26.460;2023-05-07T06:44:04;7.15;;;4.20;;
47555;SDS011;33291;46.222;26.460;2023-05-07T06:46:29;8.38;;;4.13;;
47555;SDS011;33291;46.222;26.460;2023-05-07T06:48:55;6.82;;;3.58;;
47555;SDS011;33291;46.222;26.460;2023-05-07T06:51:22;7.18;;;3.30;;
47555;SDS011;33291;46.222;26.460;2023-05-07T06:53:47;11.68;;;2.97;;
47555;SDS011;33291;46.222;26.460;2023-05-07T06:56:13;4.45;;;2.95;;
47555;SDS011;33291;46.222;26.460;2023-05-07T06:58:38;7.05;;;4.00;;
47555;SDS011;33291;46.222;26.460;2023-05-07T07:01:04;9.63;;;4.88;;
47555;SDS011;33291;46.222;26.460;2023-05-07T07:03:29;9.85;;;4.03;;
47555;SDS011;33291;46.222;26.460;2023-05-07T07:05:55;10.57;;;5.18;;
47555;SDS011;33291;46.222;26.460;2023-05-07T07:08:21;10.40;;;3.97;;
47555;SDS011;33291;46.222;26.460;2023-05-07T07:10:47;10.20;;;4.10;;
47555;SDS011;33291;46.222;26.460;2023-05-07T07:13:13;9.20;;;3.00;;
47555;SDS011;33291;46.222;26.460;2023-05-07T07:15:38;4.53;;;2.47;;
47555;SDS011;33291;46.222;26.460;2023-05-07T07:18:05;5.10;;;2.25;;
47555;SDS011;33291;46.222;26.460;2023-05-07T07:20:31;6.65;;;2.33;;
47555;SDS011;33291;46.222;26.460;2023-05-07T07:22:56;8.70;;;2.50;;
47555;SDS011;33291;46.222;26.460;2023-05-07T07:25:22;4.70;;;3.17;;
47555;SDS011;33291;46.222;26.460;2023-05-07T07:27:48;8.52;;;2.58;;
47555;SDS011;33291;46.222;26.460;2023-05-07T07:30:14;6.68;;;3.60;;
47555;SDS011;33291;46.222;26.460;2023-05-07T07:32:40;12.18;;;6.97;;
47555;SDS011;33291;46.222;26.460;2023-05-07T07:35:05;8.02;;;3.70;;
47555;SDS011;33291;46.222;26.460;2023-05-07T07:37:31;6.63;;;3.20;;
47555;SDS011;33291;46.222;26.460;2023-05-07T07:39:57;6.03;;;2.38;;
47555;SDS011;33291;46.222;26.460;2023-05-07T07:42:22;4.65;;;2.20;;
47555;SDS011;33291;46.222;26.460;2023-05-07T07:44:47;7.57;;;3.30;;
47555;SDS011;33291;46.222;26.460;2023-05-07T07:47:13;7.00;;;4.03;;
47555;SDS011;33291;46.222;26.460;2023-05-07T07:49:38;7.90;;;4.30;;
47555;SDS011;33291;46.222;26.460;2023-05-07T07:52:04;7.78;;;4.03;;
47555;SDS011;33291;46.222;26.460;2023-05-07T07:54:30;11.93;;;4.25;;
47555;SDS011;33291;46.222;26.460;2023-05-07T07:56:55;6.90;;;3.90;;
47555;SDS011;33291;46.222;26.460;2023-05-07T07:59:21;8.63;;;4.55;;
47555;SDS011;33291;46.222;26.460;2023-05-07T08:01:46;8.15;;;4.32;;
47555;SDS011;33291;46.222;26.460;2023-05-07T08:04:15;10.73;;;4.82;;
47555;SDS011;33291;46.222;26.460;2023-05-07T08:06:40;9.48;;;4.43;;
47555;SDS011;33291;46.222;26.460;2023-05-07T08:09:06;11.18;;;4.85;;
47555;SDS011;33291;46.222;26.460;2023-05-07T08:11:31;13.82;;;5.00;;
47555;SDS011;33291;46.222;26.460;2023-05-07T08:13:57;6.45;;;2.70;;
47555;SDS011;33291;46.222;26.460;2023-05-07T08:16:22;8.30;;;3.97;;
47555;SDS011;33291;46.222;26.460;2023-05-07T08:18:48;9.50;;;4.60;;
47555;SDS011;33291;46.222;26.460;2023-05-07T08:21:13;4.53;;;3.00;;
47555;SDS011;33291;46.222;26.460;2023-05-07T08:23:38;9.10;;;3.28;;
47555;SDS011;33291;46.222;26.460;2023-05-07T08:26:04;7.38;;;3.53;;
47555;SDS011;33291;46.222;26.460;2023-05-07T08:28:29;7.43;;;3.22;;
47555;SDS011;33291;46.222;26.460;2023-05-07T08:30:55;5.00;;;3.22;;
47555;SDS011;33291;46.222;26.460;2023-05-07T08:33:21;6.82;;;3.55;;
47555;SDS011;33291;46.222;26.460;2023-05-07T08:35:47;7.38;;;3.10;;
47555;SDS011;33291;46.222;26.460;2023-05-07T08:38:12;6.13;;;3.47;;
47555;SDS011;33291;46.222;26.460;2023-05-07T08:40:38;5.40;;;3.00;;
47555;SDS011;33291;46.222;26.460;2023-05-07T08:43:06;8.45;;;2.97;;
47555;SDS011;33291;46.222;26.460;2023-05-07T08:45:32;6.60;;;3.15;;
47555;SDS011;33291;46.222;26.460;2023-05-07T08:47:59;5.95;;;3.17;;
47555;SDS011;33291;46.222;26.460;2023-05-07T08:50:28;5.18;;;3.35;;
47555;SDS011;33291;46.222;26.460;2023-05-07T08:52:54;8.15;;;3.08;;
47555;SDS011;33291;46.222;26.460;2023-05-07T08:55:21;5.38;;;2.78;;
47555;SDS011;33291;46.222;26.460;2023-05-07T08:57:47;3.28;;;2.53;;
47555;SDS011;33291;46.222;26.460;2023-05-07T09:00:13;6.82;;;3.08;;
47555;SDS011;33291;46.222;26.460;2023-05-07T09:02:39;6.32;;;3.17;;
47555;SDS011;33291;46.222;26.460;2023-05-07T09:05:05;10.73;;;2.92;;
47555;SDS011;33291;46.222;26.460;2023-05-07T09:07:31;4.70;;;3.10;;
47555;SDS011;33291;46.222;26.460;2023-05-07T09:09:56;7.90;;;3.28;;
47555;SDS011;33291;46.222;26.460;2023-05-07T09:12:22;6.25;;;2.95;;
47555;SDS011;33291;46.222;26.460;2023-05-07T09:14:48;4.85;;;2.63;;
47555;SDS011;33291;46.222;26.460;2023-05-07T09:17:15;7.38;;;2.95;;
47555;SDS011;33291;46.222;26.460;2023-05-07T09:19:42;6.97;;;2.88;;
47555;SDS011;33291;46.222;26.460;2023-05-07T09:22:10;7.22;;;3.33;;
47555;SDS011;33291;46.222;26.460;2023-05-07T09:24:36;3.78;;;2.63;;
47555;SDS011;33291;46.222;26.460;2023-05-07T09:27:03;5.03;;;2.85;;
47555;SDS011;33291;46.222;26.460;2023-05-07T09:29:33;9.77;;;3.08;;
47555;SDS011;33291;46.222;26.460;2023-05-07T09:32:02;4.70;;;2.53;;
47555;SDS011;33291;46.222;26.460;2023-05-07T09:34:29;8.57;;;2.83;;
47555;SDS011;33291;46.222;26.460;2023-05-07T09:36:55;7.80;;;2.92;;
47555;SDS011;33291;46.222;26.460;2023-05-07T09:39:21;5.40;;;3.10;;
47555;SDS011;33291;46.222;26.460;2023-05-07T09:41:48;6.63;;;2.80;;
47555;SDS011;33291;46.222;26.460;2023-05-07T09:44:16;7.97;;;2.80;;
47555;SDS011;33291;46.222;26.460;2023-05-07T09:46:43;4.68;;;2.28;;
47555;SDS011;33291;46.222;26.460;2023-05-07T09:49:12;4.30;;;2.75;;
47555;SDS011;33291;46.222;26.460;2023-05-07T09:51:47;4.88;;;2.88;;
47555;SDS011;33291;46.222;26.460;2023-05-07T09:54:15;6.07;;;2.88;;
47555;SDS011;33291;46.222;26.460;2023-05-07T09:56:41;8.75;;;3.10;;
47555;SDS011;33291;46.222;26.460;2023-05-07T09:59:08;4.78;;;2.78;;
47555;SDS011;33291;46.222;26.460;2023-05-07T10:01:39;3.53;;;2.78;;
47555;SDS011;33291;46.222;26.460;2023-05-07T10:04:07;5.97;;;2.72;;
47555;SDS011;33291;46.222;26.460;2023-05-07T10:06:35;7.30;;;2.90;;
47555;SDS011;33291;46.222;26.460;2023-05-07T10:09:05;3.78;;;3.15;;
47555;SDS011;33291;46.222;26.460;2023-05-07T10:11:33;5.35;;;2.08;;
47555;SDS011;33291;46.222;26.460;2023-05-07T10:14:00;4.57;;;2.78;;
47555;SDS011;33291;46.222;26.460;2023-05-07T10:16:34;6.70;;;3.30;;
47555;SDS011;33291;46.222;26.460;2023-05-07T10:19:04;5.35;;;2.78;;
47555;SDS011;33291;46.222;26.460;2023-05-07T10:21:31;7.15;;;2.92;;
47555;SDS011;33291;46.222;26.460;2023-05-07T10:24:21;4.90;;;2.67;;
47555;SDS011;33291;46.222;26.460;2023-05-07T10:26:51;5.60;;;3.05;;
47555;SDS011;33291;46.222;26.460;2023-05-07T10:34:50;5.47;;;2.60;;
47555;SDS011;33291;46.222;26.460;2023-05-07T10:37:20;5.75;;;2.88;;
47555;SDS011;33291;46.222;26.460;2023-05-07T10:39:46;3.88;;;2.15;;
47555;SDS011;33291;46.222;26.460;2023-05-07T10:42:12;7.95;;;2.90;;
47555;SDS011;33291;46.222;26.460;2023-05-07T10:44:39;8.98;;;2.53;;
47555;SDS011;33291;46.222;26.460;2023-05-07T10:47:11;5.88;;;2.70;;
47555;SDS011;33291;46.222;26.460;2023-05-07T10:52:20;7.82;;;2.95;;
47555;SDS011;33291;46.222;26.460;2023-05-07T10:54:46;10.07;;;3.20;;
47555;SDS011;33291;46.222;26.460;2023-05-07T11:00:03;4.15;;;2.38;;
47555;SDS011;33291;46.222;26.460;2023-05-07T11:03:07;6.55;;;2.78;;
47555;SDS011;33291;46.222;26.460;2023-05-07T11:08:02;5.07;;;3.35;;
47555;SDS011;33291;46.222;26.460;2023-05-07T11:15:41;7.65;;;3.38;;
47555;SDS011;33291;46.222;26.460;2023-05-07T11:18:09;5.20;;;3.03;;
47555;SDS011;33291;46.222;26.460;2023-05-07T11:20:48;7.45;;;2.95;;
47555;SDS011;33291;46.222;26.460;2023-05-07T11:26:00;4.50;;;3.10;;
47555;SDS011;33291;46.222;26.460;2023-05-07T11:28:38;5.30;;;2.75;;
47555;SDS011;33291;46.222;26.460;2023-05-07T11:33:31;13.43;;;3.38;;
47555;SDS011;33291;46.222;26.460;2023-05-07T11:35:57;12.13;;;2.78;;
47555;SDS011;33291;46.222;26.460;2023-05-07T11:38:24;6.72;;;3.20;;
47555;SDS011;33291;46.222;26.460;2023-05-07T11:40:54;6.10;;;3.33;;
47555;SDS011;33291;46.222;26.460;2023-05-07T11:43:21;6.88;;;3.88;;
47555;SDS011;33291;46.222;26.460;2023-05-07T11:45:47;5.88;;;3.50;;
47555;SDS011;33291;46.222;26.460;2023-05-07T11:48:13;10.57;;;5.55;;
47555;SDS011;33291;46.222;26.460;2023-05-07T11:50:52;10.93;;;6.65;;
47555;SDS011;33291;46.222;26.460;2023-05-07T11:53:24;8.57;;;3.13;;
47555;SDS011;33291;46.222;26.460;2023-05-07T11:55:54;9.55;;;3.72;;
47555;SDS011;33291;46.222;26.460;2023-05-07T11:58:21;9.90;;;3.53;;
47555;SDS011;33291;46.222;26.460;2023-05-07T12:00:50;7.00;;;4.47;;
47555;SDS011;33291;46.222;26.460;2023-05-07T12:03:17;7.00;;;3.08;;
47555;SDS011;33291;46.222;26.460;2023-05-07T12:05:43;15.73;;;3.53;;
47555;SDS011;33291;46.222;26.460;2023-05-07T12:08:19;6.85;;;3.53;;
47555;SDS011;33291;46.222;26.460;2023-05-07T12:10:47;6.75;;;3.22;;
47555;SDS011;33291;46.222;26.460;2023-05-07T12:13:14;4.55;;;3.10;;
47555;SDS011;33291;46.222;26.460;2023-05-07T12:15:40;10.93;;;3.03;;
47555;SDS011;33291;46.222;26.460;2023-05-07T12:18:05;8.13;;;3.35;;
47555;SDS011;33291;46.222;26.460;2023-05-07T12:20:31;5.00;;;2.60;;
47555;SDS011;33291;46.222;26.460;2023-05-07T12:22:56;6.07;;;3.03;;
47555;SDS011;33291;46.222;26.460;2023-05-07T12:25:22;4.95;;;3.05;;
47555;SDS011;33291;46.222;26.460;2023-05-07T12:27:51;5.88;;;2.33;;
47555;SDS011;33291;46.222;26.460;2023-05-07T12:30:17;4.47;;;2.50;;
47555;SDS011;33291;46.222;26.460;2023-05-07T12:32:44;4.97;;;2.38;;
47555;SDS011;33291;46.222;26.460;2023-05-07T12:35:10;5.35;;;2.05;;
47555;SDS011;33291;46.222;26.460;2023-05-07T12:37:36;7.55;;;2.47;;
47555;SDS011;33291;46.222;26.460;2023-05-07T12:40:08;6.63;;;2.58;;
47555;SDS011;33291;46.222;26.460;2023-05-07T12:42:38;7.13;;;2.45;;
47555;SDS011;33291;46.222;26.460;2023-05-07T12:45:11;5.25;;;2.40;;
47555;SDS011;33291;46.222;26.460;2023-05-07T12:47:38;13.52;;;3.10;;
47555;SDS011;33291;46.222;26.460;2023-05-07T12:50:07;5.43;;;2.10;;
47555;SDS011;33291;46.222;26.460;2023-05-07T12:52:33;5.50;;;1.80;;
47555;SDS011;33291;46.222;26.460;2023-05-07T12:55:04;13.63;;;2.20;;
47555;SDS011;33291;46.222;26.460;2023-05-07T12:57:37;3.30;;;2.40;;
47555;SDS011;33291;46.222;26.460;2023-05-07T13:00:03;5.93;;;2.05;;
47555;SDS011;33291;46.222;26.460;2023-05-07T13:02:33;5.32;;;1.88;;
47555;SDS011;33291;46.222;26.460;2023-05-07T13:05:00;8.90;;;2.25;;
47555;SDS011;33291;46.222;26.460;2023-05-07T13:07:26;4.32;;;2.35;;
47555;SDS011;33291;46.222;26.460;2023-05-07T13:09:51;9.57;;;2.40;;
47555;SDS011;33291;46.222;26.460;2023-05-07T13:12:17;4.35;;;2.45;;
47555;SDS011;33291;46.222;26.460;2023-05-07T13:14:42;6.00;;;2.85;;
47555;SDS011;33291;46.222;26.460;2023-05-07T13:17:07;6.10;;;2.28;;
47555;SDS011;33291;46.222;26.460;2023-05-07T13:19:33;4.53;;;2.38;;
47555;SDS011;33291;46.222;26.460;2023-05-07T13:21:58;7.07;;;2.05;;
47555;SDS011;33291;46.222;26.460;2023-05-07T13:24:24;8.30;;;2.67;;
47555;SDS011;33291;46.222;26.460;2023-05-07T13:26:49;8.90;;;2.72;;
47555;SDS011;33291;46.222;26.460;2023-05-07T13:29:15;4.85;;;2.70;;
47555;SDS011;33291;46.222;26.460;2023-05-07T13:31:40;6.53;;;2.92;;
47555;SDS011;33291;46.222;26.460;2023-05-07T13:34:08;11.43;;;5.80;;
47555;SDS011;33291;46.222;26.460;2023-05-07T13:36:34;8.10;;;3.97;;
47555;SDS011;33291;46.222;26.460;2023-05-07T13:39:02;7.00;;;2.80;;
47555;SDS011;33291;46.222;26.460;2023-05-07T13:41:28;11.20;;;4.35;;
47555;SDS011;33291;46.222;26.460;2023-05-07T13:43:54;10.70;;;3.13;;
47555;SDS011;33291;46.222;26.460;2023-05-07T13:46:21;4.82;;;2.20;;
47555;SDS011;33291;46.222;26.460;2023-05-07T13:48:46;6.47;;;3.42;;
47555;SDS011;33291;46.222;26.460;2023-05-07T13:51:12;6.47;;;3.65;;
47555;SDS011;33291;46.222;26.460;2023-05-07T13:53:38;4.07;;;2.95;;
47555;SDS011;33291;46.222;26.460;2023-05-07T13:56:03;3.38;;;2.15;;
47555;SDS011;33291;46.222;26.460;2023-05-07T13:58:30;3.35;;;2.50;;
47555;SDS011;33291;46.222;26.460;2023-05-07T14:00:55;5.60;;;2.35;;
47555;SDS011;33291;46.222;26.460;2023-05-07T14:03:21;5.20;;;2.83;;
47555;SDS011;33291;46.222;26.460;2023-05-07T14:05:46;4.85;;;2.33;;
47555;SDS011;33291;46.222;26.460;2023-05-07T14:08:12;5.10;;;2.30;;
47555;SDS011;33291;46.222;26.460;2023-05-07T14:10:39;10.50;;;3.15;;
47555;SDS011;33291;46.222;26.460;2023-05-07T14:13:05;6.70;;;2.42;;
47555;SDS011;33291;46.222;26.460;2023-05-07T14:15:31;7.47;;;2.50;;
47555;SDS011;33291;46.222;26.460;2023-05-07T14:17:58;4.20;;;2.42;;
47555;SDS011;33291;46.222;26.460;2023-05-07T14:20:24;6.63;;;3.85;;
47555;SDS011;33291;46.222;26.460;2023-05-07T14:22:50;11.65;;;7.55;;
47555;SDS011;33291;46.222;26.460;2023-05-07T14:25:15;42.38;;;29.10;;
47555;SDS011;33291;46.222;26.460;2023-05-07T14:27:41;27.65;;;19.52;;
47555;SDS011;33291;46.222;26.460;2023-05-07T14:30:07;10.30;;;4.93;;
47555;SDS011;33291;46.222;26.460;2023-05-07T14:32:33;6.20;;;2.80;;
47555;SDS011;33291;46.222;26.460;2023-05-07T14:34:59;4.30;;;3.25;;
47555;SDS011;33291;46.222;26.460;2023-05-07T14:37:24;4.05;;;2.90;;
47555;SDS011;33291;46.222;26.460;2023-05-07T14:39:50;5.75;;;3.30;;
47555;SDS011;33291;46.222;26.460;2023-05-07T14:42:15;7.47;;;3.97;;
47555;SDS011;33291;46.222;26.460;2023-05-07T14:44:41;6.15;;;3.03;;
47555;SDS011;33291;46.222;26.460;2023-05-07T14:47:07;6.18;;;3.95;;
47555;SDS011;33291;46.222;26.460;2023-05-07T14:49:33;4.28;;;2.55;;
47555;SDS011;33291;46.222;26.460;2023-05-07T14:51:59;4.97;;;2.90;;
47555;SDS011;33291;46.222;26.460;2023-05-07T14:54:25;7.68;;;3.50;;